createdAt,value
2022-11-24T00:00:56.376Z,20.24
2022-11-24T00:03:01.083Z,20.22
2022-11-24T00:05:06.233Z,20.19
2022-11-24T00:07:10.821Z,20.17
2022-11-24T00:09:15.657Z,20.16
2022-11-24T00:11:20.232Z,20.16
2022-11-24T00:13:24.797Z,20.14
2022-11-24T00:15:29.413Z,20.14
2022-11-24T00:17:33.989Z,20.13
2022-11-24T00:19:38.588Z,20.1
2022-11-24T00:21:43.169Z,20.1
2022-11-24T00:23:47.750Z,20.08
2022-11-24T00:25:52.323Z,20.06
2022-11-24T00:27:56.926Z,20.04
2022-11-24T00:30:01.527Z,20.02
2022-11-24T00:32:06.113Z,20
2022-11-24T00:34:10.732Z,19.98
2022-11-24T00:36:15.444Z,19.96
2022-11-24T00:38:20.089Z,19.94
2022-11-24T00:40:24.681Z,19.93
2022-11-24T00:42:37.349Z,19.91
2022-11-24T00:44:41.953Z,19.89
2022-11-24T00:46:46.673Z,19.87
2022-11-24T00:48:51.784Z,19.87
2022-11-24T00:50:56.413Z,19.87
2022-11-24T00:53:00.971Z,19.86
2022-11-24T00:55:05.655Z,19.83
2022-11-24T00:57:10.240Z,19.82
2022-11-24T00:59:14.871Z,19.79
2022-11-24T01:01:19.552Z,19.78
2022-11-24T01:03:24.628Z,19.76
2022-11-24T01:05:29.211Z,19.74
2022-11-24T01:07:33.856Z,19.73
2022-11-24T01:09:38.702Z,19.73
2022-11-24T01:11:43.305Z,19.72
2022-11-24T01:13:47.902Z,19.71
2022-11-24T01:15:52.570Z,19.72
2022-11-24T01:17:57.356Z,19.69
2022-11-24T01:20:02.034Z,19.69
2022-11-24T01:22:06.724Z,19.67
2022-11-24T01:24:11.335Z,19.64
2022-11-24T01:26:15.907Z,19.63
2022-11-24T01:28:20.462Z,19.61
2022-11-24T01:30:25.073Z,19.6
2022-11-24T01:32:29.611Z,19.58
2022-11-24T01:34:34.358Z,19.56
2022-11-24T01:36:39.468Z,19.53
2022-11-24T01:38:44.036Z,19.52
2022-11-24T01:40:48.624Z,19.5
2022-11-24T01:42:53.247Z,19.49
2022-11-24T01:44:57.827Z,19.46
2022-11-24T01:47:02.415Z,19.44
2022-11-24T01:49:07.145Z,19.43
2022-11-24T01:51:11.823Z,19.41
2022-11-24T01:53:16.424Z,19.4
2022-11-24T01:55:21.001Z,19.39
2022-11-24T01:57:25.621Z,19.38
2022-11-24T01:59:30.215Z,19.35
2022-11-24T02:01:34.848Z,19.32
2022-11-24T02:03:39.675Z,19.3
2022-11-24T02:05:44.353Z,19.29
2022-11-24T02:07:49.055Z,19.26
2022-11-24T02:09:53.933Z,19.24
2022-11-24T02:11:58.516Z,19.25
2022-11-24T02:14:03.105Z,19.26
2022-11-24T02:16:07.762Z,19.24
2022-11-24T02:18:12.602Z,19.23
2022-11-24T02:20:17.224Z,19.2
2022-11-24T02:22:21.788Z,19.2
2022-11-24T02:24:26.418Z,19.23
2022-11-24T02:26:31.185Z,19.24
2022-11-24T02:28:35.747Z,19.24
2022-11-24T02:30:40.420Z,19.22
2022-11-24T02:32:45.229Z,19.21
2022-11-24T02:34:49.816Z,19.21
2022-11-24T02:36:54.424Z,19.21
2022-11-24T02:38:59.015Z,19.18
2022-11-24T02:41:03.603Z,19.15
2022-11-24T02:43:08.197Z,19.15
2022-11-24T02:45:12.850Z,19.12
2022-11-24T02:47:17.440Z,19.1
2022-11-24T02:49:22.134Z,19.11
2022-11-24T02:51:26.730Z,19.09
2022-11-24T02:53:31.324Z,19.08
2022-11-24T02:55:35.905Z,19.06
2022-11-24T02:57:40.519Z,19.04
2022-11-24T02:59:45.126Z,19.05
2022-11-24T03:01:49.820Z,19.03
2022-11-24T03:03:54.678Z,19.01
2022-11-24T03:05:59.334Z,18.99
2022-11-24T03:08:04.001Z,18.98
2022-11-24T03:10:08.629Z,18.96
2022-11-24T03:12:13.211Z,18.96
2022-11-24T03:14:17.789Z,18.95
2022-11-24T03:16:22.410Z,18.93
2022-11-24T03:18:27.195Z,18.92
2022-11-24T03:20:31.788Z,18.9
2022-11-24T03:22:36.366Z,18.87
2022-11-24T03:24:41.003Z,18.87
2022-11-24T03:26:45.643Z,18.87
2022-11-24T03:28:50.266Z,18.9
2022-11-24T03:30:54.870Z,18.87
2022-11-24T03:32:59.700Z,18.85
2022-11-24T03:35:04.299Z,18.84
2022-11-24T03:37:08.828Z,18.88
2022-11-24T03:39:13.422Z,18.85
2022-11-24T03:41:18.045Z,18.84
2022-11-24T03:43:22.581Z,18.82
2022-11-24T03:45:45.252Z,18.82
2022-11-24T03:47:50.840Z,18.79
2022-11-24T03:49:55.495Z,18.78
2022-11-24T03:52:03.829Z,18.75
2022-11-24T03:54:12.110Z,18.72
2022-11-24T03:56:16.734Z,18.71
2022-11-24T03:58:21.412Z,18.69
2022-11-24T04:00:26.076Z,18.68
2022-11-24T04:02:30.666Z,18.67
2022-11-24T04:04:35.724Z,18.64
2022-11-24T04:06:40.464Z,18.64
2022-11-24T04:08:45.074Z,18.62
2022-11-24T04:10:49.694Z,18.63
2022-11-24T04:12:54.395Z,18.6
2022-11-24T04:14:58.966Z,18.57
2022-11-24T04:17:03.556Z,18.59
2022-11-24T04:19:08.142Z,18.6
2022-11-24T04:21:12.738Z,18.59
2022-11-24T04:23:17.317Z,18.62
2022-11-24T04:25:22.014Z,18.59
2022-11-24T04:27:26.604Z,18.57
2022-11-24T04:29:31.195Z,18.57
2022-11-24T04:31:35.870Z,18.56
2022-11-24T04:33:40.661Z,18.55
2022-11-24T04:35:45.318Z,18.56
2022-11-24T04:37:50.024Z,18.55
2022-11-24T04:39:54.664Z,18.53
2022-11-24T04:41:59.270Z,18.62
2022-11-24T04:44:03.821Z,18.74
2022-11-24T04:46:08.422Z,18.87
2022-11-24T04:48:13.275Z,19
2022-11-24T04:50:17.913Z,19.1
2022-11-24T04:52:22.701Z,19.2
2022-11-24T04:54:27.268Z,19.27
2022-11-24T04:56:31.801Z,19.34
2022-11-24T04:58:36.425Z,19.41
2022-11-24T05:00:41.027Z,19.46
2022-11-24T05:02:45.674Z,19.51
2022-11-24T05:04:50.265Z,19.56
2022-11-24T05:06:54.846Z,19.6
2022-11-24T05:08:59.420Z,19.65
2022-11-24T05:11:03.941Z,19.69
2022-11-24T05:13:08.493Z,19.72
2022-11-24T05:15:12.870Z,19.75
2022-11-24T05:17:17.345Z,19.78
2022-11-24T05:19:21.863Z,19.81
2022-11-24T05:21:29.813Z,19.84
2022-11-24T05:23:34.351Z,19.87
2022-11-24T05:25:39.769Z,19.89
2022-11-24T05:27:50.976Z,19.91
2022-11-24T05:29:55.484Z,19.93
2022-11-24T05:32:00.031Z,19.95
2022-11-24T05:34:04.514Z,19.98
2022-11-24T05:36:08.988Z,20
2022-11-24T05:38:13.376Z,20.02
2022-11-24T05:40:17.904Z,20.04
2022-11-24T05:42:22.409Z,20.06
2022-11-24T05:44:26.922Z,20.07
2022-11-24T05:46:31.549Z,20.08
2022-11-24T05:48:36.452Z,20.09
2022-11-24T05:50:40.987Z,20.1
2022-11-24T05:52:45.475Z,20.13
2022-11-24T05:54:49.871Z,20.14
2022-11-24T05:56:54.255Z,20.16
2022-11-24T05:58:58.533Z,20.17
2022-11-24T06:01:07.987Z,20.2
2022-11-24T06:03:12.369Z,20.22
2022-11-24T06:05:16.801Z,20.23
2022-11-24T06:07:21.166Z,20.24
2022-11-24T06:09:25.669Z,20.26
2022-11-24T06:11:29.962Z,20.28
2022-11-24T06:13:34.301Z,20.28
2022-11-24T06:15:39.505Z,20.27
2022-11-24T06:17:43.849Z,20.28
2022-11-24T06:19:48.134Z,20.29
2022-11-24T06:21:52.440Z,20.29
2022-11-24T06:23:56.766Z,20.3
2022-11-24T06:26:01.126Z,20.31
2022-11-24T06:28:05.462Z,20.31
2022-11-24T06:30:09.944Z,20.31
2022-11-24T06:32:14.279Z,20.31
2022-11-24T06:34:18.656Z,20.31
2022-11-24T06:36:22.968Z,20.32
2022-11-24T06:38:27.340Z,20.31
2022-11-24T06:40:31.716Z,20.32
2022-11-24T06:42:36.025Z,20.32
2022-11-24T06:44:40.300Z,20.33
2022-11-24T06:46:44.575Z,20.33
2022-11-24T06:48:48.900Z,20.34
2022-11-24T06:50:53.181Z,20.37
2022-11-24T06:52:57.505Z,20.39
2022-11-24T06:55:01.793Z,20.42
2022-11-24T06:57:06.107Z,20.46
2022-11-24T06:59:10.485Z,20.5
2022-11-24T07:01:14.859Z,20.54
2022-11-24T07:03:19.767Z,20.58
2022-11-24T07:05:24.325Z,20.61
2022-11-24T07:07:28.701Z,20.63
2022-11-24T07:09:33.204Z,20.64
2022-11-24T07:11:37.517Z,20.66
2022-11-24T07:13:41.830Z,20.67
2022-11-24T07:15:46.139Z,20.69
2022-11-24T07:17:50.460Z,20.69
2022-11-24T07:19:54.802Z,20.7
2022-11-24T07:21:59.073Z,20.7
2022-11-24T07:24:03.407Z,20.69
2022-11-24T07:26:07.703Z,20.69
2022-11-24T07:28:12.044Z,20.69
2022-11-24T07:30:16.365Z,20.69
2022-11-24T07:32:20.745Z,20.71
2022-11-24T07:34:25.354Z,20.72
2022-11-24T07:36:29.647Z,20.75
2022-11-24T07:38:33.931Z,20.75
2022-11-24T07:40:38.337Z,20.75
2022-11-24T07:42:42.669Z,20.76
2022-11-24T07:44:47.000Z,20.74
2022-11-24T07:46:51.236Z,20.74
2022-11-24T07:48:55.565Z,20.75
2022-11-24T07:50:59.895Z,20.75
2022-11-24T07:53:04.112Z,20.76
2022-11-24T07:55:08.405Z,20.79
2022-11-24T07:57:12.716Z,20.79
2022-11-24T07:59:17.016Z,20.8
2022-11-24T08:01:21.519Z,20.8
2022-11-24T08:03:26.228Z,20.78
2022-11-24T08:05:30.817Z,20.78
2022-11-24T08:07:35.203Z,20.77
2022-11-24T08:09:39.799Z,20.75
2022-11-24T08:11:44.145Z,20.76
2022-11-24T08:13:48.484Z,20.76
2022-11-24T08:15:52.777Z,20.75
2022-11-24T08:17:57.154Z,20.74
2022-11-24T08:20:01.466Z,20.73
2022-11-24T08:22:05.827Z,20.73
2022-11-24T08:24:10.163Z,20.73
2022-11-24T08:26:14.522Z,20.73
2022-11-24T08:28:18.849Z,20.72
2022-11-24T08:30:23.170Z,20.73
2022-11-24T08:32:27.891Z,20.73
2022-11-24T08:34:32.528Z,20.73
2022-11-24T08:36:38.004Z,20.75
2022-11-24T08:38:42.334Z,20.76
2022-11-24T08:40:46.722Z,20.76
2022-11-24T08:42:51.065Z,20.76
2022-11-24T08:44:58.975Z,20.76
2022-11-24T08:47:22.985Z,20.77
2022-11-24T08:49:27.303Z,20.77
2022-11-24T08:51:31.742Z,20.77
2022-11-24T08:53:36.056Z,20.77
2022-11-24T08:55:40.449Z,20.78
2022-11-24T08:57:44.795Z,20.78
2022-11-24T08:59:49.131Z,20.77
2022-11-24T09:01:53.473Z,20.76
2022-11-24T09:03:58.250Z,20.77
2022-11-24T09:06:02.773Z,20.79
2022-11-24T09:08:07.145Z,20.82
2022-11-24T09:10:11.459Z,20.82
2022-11-24T09:12:15.814Z,20.83
2022-11-24T09:14:20.146Z,20.84
2022-11-24T09:16:24.482Z,20.84
2022-11-24T09:18:30.485Z,20.84
2022-11-24T09:20:35.006Z,20.81
2022-11-24T09:22:39.393Z,20.82
2022-11-24T09:24:43.706Z,20.79
2022-11-24T09:26:48.099Z,20.78
2022-11-24T09:28:52.448Z,20.78
2022-11-24T09:30:56.931Z,20.78
2022-11-24T09:33:01.530Z,20.77
2022-11-24T09:35:05.876Z,20.76
2022-11-24T09:37:10.240Z,20.79
2022-11-24T09:39:14.564Z,20.79
2022-11-24T09:41:18.877Z,20.81
2022-11-24T09:43:23.213Z,20.82
2022-11-24T09:45:49.246Z,20.82
2022-11-24T09:48:09.343Z,20.84
2022-11-24T09:50:13.681Z,20.85
2022-11-24T09:52:18.004Z,20.86
2022-11-24T09:54:22.333Z,20.87
2022-11-24T09:56:26.686Z,20.88
2022-11-24T09:58:31.054Z,20.89
2022-11-24T10:00:35.400Z,20.9
2022-11-24T10:02:39.729Z,20.92
2022-11-24T10:04:44.154Z,20.93
2022-11-24T10:06:48.827Z,20.95
2022-11-24T10:08:53.150Z,20.97
2022-11-24T10:10:57.526Z,20.97
2022-11-24T10:13:01.879Z,20.98
2022-11-24T10:15:06.224Z,20.98
2022-11-24T10:17:10.579Z,20.99
2022-11-24T10:19:14.920Z,21
2022-11-24T10:21:19.413Z,21
2022-11-24T10:23:23.802Z,20.99
2022-11-24T10:25:28.153Z,20.99
2022-11-24T10:27:32.527Z,20.98
2022-11-24T10:29:37.209Z,20.98
2022-11-24T10:31:41.646Z,20.97
2022-11-24T10:33:46.043Z,20.98
2022-11-24T10:35:50.477Z,20.99
2022-11-24T10:37:54.835Z,21.02
2022-11-24T10:40:00.336Z,21.04
2022-11-24T10:42:04.859Z,21.07
2022-11-24T10:44:09.268Z,21.08
2022-11-24T10:46:13.920Z,21.07
2022-11-24T10:48:18.485Z,21.07
2022-11-24T10:50:22.828Z,21.05
2022-11-24T10:52:27.134Z,21.05
2022-11-24T10:54:31.435Z,21.04
2022-11-24T10:56:35.778Z,21.04
2022-11-24T10:58:40.080Z,21.04
2022-11-24T11:00:44.394Z,21.06
2022-11-24T11:02:48.830Z,21.07
2022-11-24T11:04:53.373Z,21.09
2022-11-24T11:06:57.690Z,21.1
2022-11-24T11:09:02.010Z,21.1
2022-11-24T11:11:06.325Z,21.11
2022-11-24T11:13:10.686Z,21.12
2022-11-24T11:15:15.006Z,21.12
2022-11-24T11:17:19.344Z,21.13
2022-11-24T11:19:47.155Z,21.14
2022-11-24T11:21:57.961Z,21.15
2022-11-24T11:24:02.275Z,21.2
2022-11-24T11:26:06.598Z,21.21
2022-11-24T11:28:15.105Z,21.24
2022-11-24T11:36:13.085Z,21.27
2022-11-24T11:38:17.432Z,21.28
2022-11-24T11:40:21.773Z,21.27
2022-11-24T11:42:54.156Z,21.27
2022-11-24T11:45:06.692Z,21.27
2022-11-24T11:47:11.007Z,21.27
2022-11-24T11:49:15.756Z,21.27
2022-11-24T11:51:24.079Z,21.26
2022-11-24T11:53:29.225Z,21.27
2022-11-24T11:55:33.561Z,21.26
2022-11-24T11:57:37.958Z,21.25
2022-11-24T11:59:42.310Z,21.25
2022-11-24T12:01:46.634Z,21.24
2022-11-24T12:03:51.048Z,21.25
2022-11-24T12:05:55.885Z,21.23
2022-11-24T12:08:03.538Z,21.24
2022-11-24T12:10:21.685Z,21.26
2022-11-24T12:12:26.052Z,21.29
2022-11-24T12:14:30.327Z,21.31
2022-11-24T12:16:34.693Z,21.33
2022-11-24T12:21:13.577Z,21.34
2022-11-24T12:23:20.419Z,21.33
2022-11-24T12:25:24.800Z,21.32
2022-11-24T12:27:29.130Z,21.33
2022-11-24T12:29:36.473Z,21.33
2022-11-24T12:31:41.334Z,21.32
2022-11-24T12:33:50.565Z,21.33
2022-11-24T12:36:04.029Z,21.33
2022-11-24T12:38:08.326Z,21.32
2022-11-24T12:40:12.626Z,21.32
2022-11-24T12:42:17.063Z,21.3
2022-11-24T12:44:21.425Z,21.3
2022-11-24T12:46:25.915Z,21.31
2022-11-24T12:48:30.479Z,21.31
2022-11-24T12:50:34.813Z,21.35
2022-11-24T12:52:39.142Z,21.36
2022-11-24T12:54:43.455Z,21.37
2022-11-24T12:56:47.789Z,21.39
2022-11-24T12:58:52.137Z,21.4
2022-11-24T13:00:56.499Z,21.41
2022-11-24T13:03:00.948Z,21.42
2022-11-24T13:05:05.909Z,21.43
2022-11-24T13:07:10.284Z,21.43
2022-11-24T13:09:14.888Z,21.44
2022-11-24T13:11:19.290Z,21.44
2022-11-24T13:13:23.704Z,21.44
2022-11-24T13:15:44.984Z,21.45
2022-11-24T13:18:15.955Z,21.46
2022-11-24T13:20:20.495Z,21.46
2022-11-24T13:22:24.834Z,21.46
2022-11-24T13:24:29.188Z,21.46
2022-11-24T13:26:35.328Z,21.46
2022-11-24T13:29:01.696Z,21.46
2022-11-24T13:31:27.887Z,21.45
2022-11-24T13:33:32.650Z,21.46
2022-11-24T13:35:37.053Z,21.47
2022-11-24T13:37:41.357Z,21.48
2022-11-24T13:39:50.161Z,21.49
2022-11-24T13:41:54.883Z,21.5
2022-11-24T13:43:59.230Z,21.52
2022-11-24T13:46:03.572Z,21.54
2022-11-24T13:48:07.913Z,21.59
2022-11-24T13:50:12.289Z,21.62
2022-11-24T13:52:16.884Z,21.63
2022-11-24T13:54:21.197Z,21.64
2022-11-24T13:56:25.617Z,21.64
2022-11-24T13:58:29.931Z,21.66
2022-11-24T14:00:34.345Z,21.64
2022-11-24T14:02:38.720Z,21.67
2022-11-24T14:04:43.403Z,21.68
2022-11-24T14:06:49.317Z,21.73
2022-11-24T14:08:53.662Z,21.76
2022-11-24T14:10:58.104Z,21.79
2022-11-24T14:13:02.468Z,21.81
2022-11-24T14:15:06.800Z,21.83
2022-11-24T14:17:11.140Z,21.84
2022-11-24T14:19:15.499Z,21.87
2022-11-24T14:21:19.908Z,21.89
2022-11-24T14:23:24.332Z,21.9
2022-11-24T14:25:28.669Z,21.93
2022-11-24T14:27:33.007Z,21.95
2022-11-24T14:29:37.319Z,21.99
2022-11-24T14:31:41.777Z,22.02
2022-11-24T14:33:46.465Z,22.05
2022-11-24T14:35:50.781Z,22.06
2022-11-24T14:37:55.102Z,22.06
2022-11-24T14:39:59.423Z,22.09
2022-11-24T14:42:03.940Z,22.12
2022-11-24T14:44:08.417Z,22.13
2022-11-24T14:46:12.946Z,22.14
2022-11-24T14:48:17.724Z,22.15
2022-11-24T14:50:22.100Z,22.17
2022-11-24T14:52:26.704Z,22.17
2022-11-24T14:54:31.015Z,22.17
2022-11-24T14:56:36.390Z,22.18
2022-11-24T14:58:42.494Z,22.19
2022-11-24T15:00:47.099Z,22.2
2022-11-24T15:02:51.608Z,22.2
2022-11-24T15:05:02.531Z,22.2
2022-11-24T15:07:08.893Z,22.19
2022-11-24T15:09:13.457Z,22.18
2022-11-24T15:11:17.862Z,22.19
2022-11-24T15:13:22.222Z,22.2
2022-11-24T15:15:26.565Z,22.21
2022-11-24T15:17:30.954Z,22.21
2022-11-24T15:19:35.280Z,22.22
2022-11-24T15:21:39.627Z,22.23
2022-11-24T15:23:43.977Z,22.22
2022-11-24T15:25:48.286Z,22.22
2022-11-24T15:27:52.690Z,22.22
2022-11-24T15:29:57.003Z,22.25
2022-11-24T15:32:01.403Z,22.28
2022-11-24T15:34:05.953Z,22.32
2022-11-24T15:36:10.243Z,22.33
2022-11-24T15:38:14.647Z,22.34
2022-11-24T15:40:18.947Z,22.34
2022-11-24T15:42:23.290Z,22.35
2022-11-24T15:44:27.654Z,22.36
2022-11-24T15:46:32.001Z,22.35
2022-11-24T15:48:36.609Z,22.36
2022-11-24T15:50:40.903Z,22.37
2022-11-24T15:52:45.207Z,22.38
2022-11-24T15:54:49.534Z,22.39
2022-11-24T15:56:53.868Z,22.4
2022-11-24T15:58:58.254Z,22.43
2022-11-24T16:01:02.654Z,22.44
2022-11-24T16:03:24.292Z,22.44
2022-11-24T16:05:51.883Z,22.45
2022-11-24T16:07:56.297Z,22.47
2022-11-24T16:10:00.918Z,22.47
2022-11-24T16:12:05.454Z,22.47
2022-11-24T16:14:09.822Z,22.48
2022-11-24T16:16:14.545Z,22.48
2022-11-24T16:18:19.150Z,22.47
2022-11-24T16:20:23.514Z,22.48
2022-11-24T16:22:27.821Z,22.5
2022-11-24T16:24:32.745Z,22.52
2022-11-24T16:26:38.334Z,22.53
2022-11-24T16:28:42.673Z,22.52
2022-11-24T16:30:47.003Z,22.53
2022-11-24T16:32:51.327Z,22.53
2022-11-24T16:34:55.863Z,22.55
2022-11-24T16:37:00.262Z,22.55
2022-11-24T16:39:04.569Z,22.58
2022-11-24T16:41:08.924Z,22.59
2022-11-24T16:43:13.310Z,22.62
2022-11-24T16:45:17.611Z,22.63
2022-11-24T16:47:21.971Z,22.65
2022-11-24T16:49:26.298Z,22.67
2022-11-24T16:51:34.587Z,22.68
2022-11-24T16:53:39.397Z,22.7
2022-11-24T16:55:43.740Z,22.72
2022-11-24T16:57:48.084Z,22.73
2022-11-24T16:59:52.406Z,22.74
2022-11-24T17:01:56.827Z,22.75
2022-11-24T17:04:01.372Z,22.68
2022-11-24T17:06:09.478Z,22.61
2022-11-24T17:08:13.933Z,22.55
2022-11-24T17:10:18.239Z,22.47
2022-11-24T17:12:22.565Z,22.39
2022-11-24T17:14:26.891Z,22.3
2022-11-24T17:16:31.227Z,22.21
2022-11-24T17:18:35.751Z,22.14
2022-11-24T17:20:40.636Z,22.09
2022-11-24T17:22:45.007Z,22.03
2022-11-24T17:24:49.361Z,21.95
2022-11-24T17:26:53.761Z,21.9
2022-11-24T17:28:58.162Z,21.84
2022-11-24T17:31:02.626Z,21.77
2022-11-24T17:33:07.085Z,21.72
2022-11-24T17:35:11.541Z,21.68
2022-11-24T17:37:15.965Z,21.63
2022-11-24T17:39:24.683Z,21.61
2022-11-24T17:41:29.437Z,21.57
2022-11-24T17:43:33.833Z,21.53
2022-11-24T17:45:38.289Z,21.52
2022-11-24T17:47:42.828Z,21.5
2022-11-24T17:49:47.192Z,21.49
2022-11-24T17:51:51.541Z,21.54
2022-11-24T17:53:56.086Z,21.54
2022-11-24T17:56:00.480Z,21.58
2022-11-24T17:58:04.869Z,21.65
2022-11-24T18:00:09.247Z,21.75
2022-11-24T18:02:13.693Z,21.85
2022-11-24T18:04:18.286Z,21.94
2022-11-24T18:06:22.659Z,21.97
2022-11-24T18:08:27.088Z,21.93
2022-11-24T18:10:31.493Z,21.93
2022-11-24T18:12:35.896Z,21.94
2022-11-24T18:14:40.341Z,21.92
2022-11-24T18:16:44.739Z,21.91
2022-11-24T18:18:50.367Z,21.9
2022-11-24T18:21:12.053Z,21.86
2022-11-24T18:23:16.498Z,21.9
2022-11-24T18:25:20.949Z,21.96
2022-11-24T18:27:25.317Z,22.02
2022-11-24T18:29:29.781Z,22.08
2022-11-24T18:31:34.348Z,22.13
2022-11-24T18:33:39.781Z,22.18
2022-11-24T18:35:44.201Z,22.23
2022-11-24T18:37:48.626Z,22.26
2022-11-24T18:39:53.059Z,22.29
2022-11-24T18:41:57.476Z,22.34
2022-11-24T18:44:01.962Z,22.39
2022-11-24T18:46:06.623Z,22.44
2022-11-24T18:48:11.364Z,22.48
2022-11-24T18:50:15.810Z,22.43
2022-11-24T18:52:20.207Z,22.33
2022-11-24T18:54:24.614Z,22.25
2022-11-24T18:56:29.057Z,22.26
2022-11-24T18:58:33.516Z,22.31
2022-11-24T19:00:37.884Z,22.35
2022-11-24T19:02:42.277Z,22.4
2022-11-24T19:04:46.914Z,22.43
2022-11-24T19:06:51.326Z,22.46
2022-11-24T19:08:55.751Z,22.5
2022-11-24T19:11:00.193Z,22.53
2022-11-24T19:13:04.654Z,22.55
2022-11-24T19:15:09.008Z,22.57
2022-11-24T19:17:13.425Z,22.57
2022-11-24T19:19:17.796Z,22.58
2022-11-24T19:21:22.331Z,22.6
2022-11-24T19:23:26.770Z,22.61
2022-11-24T19:25:31.265Z,22.61
2022-11-24T19:27:35.669Z,22.62
2022-11-24T19:29:43.010Z,22.62
2022-11-24T19:31:47.635Z,22.62
2022-11-24T19:33:52.288Z,22.62
2022-11-24T19:35:56.656Z,22.62
2022-11-24T19:38:01.094Z,22.63
2022-11-24T19:40:05.558Z,22.64
2022-11-24T19:42:09.971Z,22.66
2022-11-24T19:44:14.392Z,22.67
2022-11-24T19:46:18.849Z,22.68
2022-11-24T19:48:23.445Z,22.69
2022-11-24T19:50:27.810Z,22.69
2022-11-24T19:52:32.183Z,22.69
2022-11-24T19:54:36.820Z,22.68
2022-11-24T19:56:41.462Z,22.66
2022-11-24T19:58:45.804Z,22.65
2022-11-24T20:00:50.225Z,22.64
2022-11-24T20:02:54.824Z,22.61
2022-11-24T20:04:59.374Z,22.62
2022-11-24T20:07:03.715Z,22.62
2022-11-24T20:09:08.029Z,22.64
2022-11-24T20:11:12.373Z,22.66
2022-11-24T20:13:16.755Z,22.68
2022-11-24T20:15:21.137Z,22.68
2022-11-24T20:17:25.530Z,22.68
2022-11-24T20:19:30.008Z,22.68
2022-11-24T20:21:34.411Z,22.69
2022-11-24T20:23:38.804Z,22.7
2022-11-24T20:25:43.223Z,22.7
2022-11-24T20:27:47.625Z,22.71
2022-11-24T20:29:52.046Z,22.72
2022-11-24T20:31:56.641Z,22.73
2022-11-24T20:34:01.484Z,22.73
2022-11-24T20:36:05.967Z,22.74
2022-11-24T20:38:10.371Z,22.74
2022-11-24T20:40:14.807Z,22.74
2022-11-24T20:42:19.191Z,22.75
2022-11-24T20:44:23.572Z,22.75
2022-11-24T20:46:27.987Z,22.77
2022-11-24T20:48:32.416Z,22.77
2022-11-24T20:50:36.867Z,22.78
2022-11-24T20:52:41.296Z,22.78
2022-11-24T20:54:45.756Z,22.78
2022-11-24T20:56:50.158Z,22.78
2022-11-24T20:58:54.580Z,22.78
2022-11-24T21:00:59.077Z,22.78
2022-11-24T21:03:04.105Z,22.78
2022-11-24T21:05:08.514Z,22.77
2022-11-24T21:07:12.965Z,22.78
2022-11-24T21:09:17.604Z,22.77
2022-11-24T21:11:22.003Z,22.78
2022-11-24T21:13:26.369Z,22.78
2022-11-24T21:15:30.756Z,22.78
2022-11-24T21:17:35.114Z,22.78
2022-11-24T21:19:39.508Z,22.8
2022-11-24T21:21:43.900Z,22.8
2022-11-24T21:23:48.269Z,22.81
2022-11-24T21:25:52.692Z,22.82
2022-11-24T21:27:57.082Z,22.81
2022-11-24T21:30:01.467Z,22.81
2022-11-24T21:32:05.943Z,22.82
2022-11-24T21:34:10.558Z,22.82
2022-11-24T21:36:14.973Z,22.84
2022-11-24T21:38:19.332Z,22.85
2022-11-24T21:40:23.721Z,22.86
2022-11-24T21:42:28.142Z,22.87
2022-11-24T21:44:32.767Z,22.87
2022-11-24T21:46:44.062Z,22.86
2022-11-24T21:48:58.841Z,22.85
2022-11-24T21:51:03.215Z,22.85
2022-11-24T21:53:07.662Z,22.86
2022-11-24T21:55:12.101Z,22.85
2022-11-24T21:57:16.519Z,22.85
2022-11-24T21:59:20.938Z,22.86
2022-11-24T22:01:25.409Z,22.87
2022-11-24T22:03:30.138Z,22.88
2022-11-24T22:05:34.513Z,22.88
2022-11-24T22:07:38.979Z,22.89
2022-11-24T22:09:43.594Z,22.9
2022-11-24T22:11:47.950Z,22.91
2022-11-24T22:13:52.325Z,22.91
2022-11-24T22:15:56.758Z,22.91
2022-11-24T22:18:01.297Z,22.92
2022-11-24T22:20:05.677Z,22.93
2022-11-24T22:22:10.078Z,22.93
2022-11-24T22:24:14.479Z,22.93
2022-11-24T22:26:18.875Z,22.94
2022-11-24T22:28:23.326Z,22.93
2022-11-24T22:30:27.710Z,22.94
2022-11-24T22:32:32.132Z,22.94
2022-11-24T22:34:36.737Z,22.92
2022-11-24T22:36:41.721Z,22.84
2022-11-24T22:38:46.136Z,22.73
2022-11-24T22:40:50.566Z,22.61
2022-11-24T22:42:55.004Z,22.45
2022-11-24T22:44:59.525Z,22.31
2022-11-24T22:47:03.878Z,22.21
2022-11-24T22:49:08.307Z,22.1
2022-11-24T22:51:12.668Z,22.01
2022-11-24T22:53:17.038Z,21.93
2022-11-24T22:55:21.407Z,21.84
2022-11-24T22:57:25.759Z,21.76
2022-11-24T22:59:30.166Z,21.69
2022-11-24T23:01:34.584Z,21.64
2022-11-24T23:03:39.038Z,21.57
2022-11-24T23:05:43.576Z,21.51
2022-11-24T23:07:48.008Z,21.46
2022-11-24T23:09:52.668Z,21.41
2022-11-24T23:11:57.065Z,21.37
2022-11-24T23:14:01.535Z,21.32
2022-11-24T23:16:05.951Z,21.28
2022-11-24T23:18:10.475Z,21.24
2022-11-24T23:20:14.832Z,21.21
2022-11-24T23:22:19.191Z,21.18
2022-11-24T23:24:23.587Z,21.14
2022-11-24T23:26:27.964Z,21.11
2022-11-24T23:28:32.341Z,21.09
2022-11-24T23:30:36.729Z,21.07
2022-11-24T23:32:41.189Z,21.04
2022-11-24T23:34:45.534Z,21.02
2022-11-24T23:36:49.900Z,21
2022-11-24T23:38:54.288Z,20.98
2022-11-24T23:40:58.665Z,20.95
2022-11-24T23:43:03.033Z,20.94
2022-11-24T23:45:07.435Z,20.92
2022-11-24T23:47:11.798Z,20.9
2022-11-24T23:49:16.227Z,20.88
2022-11-24T23:51:20.634Z,20.86
2022-11-24T23:53:25.039Z,20.84
2022-11-24T23:55:29.536Z,20.83
2022-11-24T23:57:33.889Z,20.82
2022-11-24T23:59:38.305Z,20.81
